Time;durP1;ratioP1;P1;durP2;ratioP2;P2;SDS_P1;SDS_P2;PMS_P1;PMS_P2;Temp;Humidity;BMP_temperature;BMP_pressure;BME280_temperature;BME280_humidity;BME280_pressure;Samples;Min_cycle;Max_cycle;Signal;HPM_P1;HPM_P2
2023/10/28 00:00:44;;;;;;;2.90;1.10;;;19.90;70.10;;;;;;5093265;28;20040;-61
2023/10/28 00:03:10;;;;;;;2.65;1.40;;;19.90;70.00;;;;;;5093981;28;20051;-62
2023/10/28 00:05:35;;;;;;;1.77;1.20;;;19.90;70.00;;;;;;5093536;28;20040;-62
2023/10/28 00:08:04;;;;;;;1.98;1.20;;;19.90;70.00;;;;;;5094063;28;20514;-61
2023/10/28 00:10:31;;;;;;;2.30;1.15;;;19.90;70.00;;;;;;5092940;28;20492;-61
2023/10/28 00:12:57;;;;;;;1.58;1.00;;;19.90;70.00;;;;;;5093304;28;20040;-61
2023/10/28 00:15:24;;;;;;;1.38;1.02;;;19.90;70.10;;;;;;5093696;28;20050;-61
2023/10/28 00:17:50;;;;;;;1.90;1.00;;;19.90;70.00;;;;;;5094071;28;20084;-61
2023/10/28 00:20:17;;;;;;;1.95;1.25;;;19.80;70.00;;;;;;5104900;28;20550;-61
2023/10/28 00:22:46;;;;;;;1.60;1.05;;;19.90;70.10;;;;;;5114228;28;20035;-61
2023/10/28 00:25:13;;;;;;;1.77;1.10;;;19.80;70.00;;;;;;5113852;28;20039;-61
2023/10/28 00:27:40;;;;;;;1.70;1.10;;;19.80;69.90;;;;;;5113551;28;20046;-61
2023/10/28 00:30:07;;;;;;;1.85;1.17;;;19.80;69.90;;;;;;5114062;28;20043;-61
2023/10/28 00:32:33;;;;;;;2.17;1.27;;;19.80;69.90;;;;;;5113174;28;20054;-61
2023/10/28 00:34:59;;;;;;;2.03;1.10;;;19.80;69.90;;;;;;5103265;28;20043;-61
2023/10/28 00:37:25;;;;;;;2.65;1.30;;;19.80;70.00;;;;;;5093328;28;20043;-62
2023/10/28 00:39:51;;;;;;;2.35;1.10;;;19.80;69.90;;;;;;5094776;28;20035;-62
2023/10/28 00:42:17;;;;;;;2.15;1.08;;;19.80;69.90;;;;;;5112594;28;20053;-62
2023/10/28 00:44:43;;;;;;;1.23;0.90;;;19.80;69.90;;;;;;5112584;28;20437;-62
2023/10/28 00:47:09;;;;;;;1.80;1.10;;;19.80;69.90;;;;;;5113064;28;20137;-61
2023/10/28 00:49:35;;;;;;;1.27;1.00;;;19.80;69.90;;;;;;5095450;28;20055;-61
2023/10/28 00:52:01;;;;;;;2.20;1.05;;;19.80;69.90;;;;;;5113704;28;20035;-61
2023/10/28 00:54:27;;;;;;;2.00;1.38;;;19.80;69.90;;;;;;5094353;28;20050;-61
2023/10/28 00:56:53;;;;;;;1.77;1.10;;;19.80;69.90;;;;;;5076361;28;20055;-61
2023/10/28 00:59:19;;;;;;;1.85;0.95;;;19.70;69.80;;;;;;5092986;28;20044;-62
2023/10/28 01:01:44;;;;;;;1.48;0.93;;;19.70;70.50;;;;;;5092514;28;20131;-62
2023/10/28 01:04:10;;;;;;;1.42;0.77;;;19.70;69.80;;;;;;5091121;28;20043;-61
2023/10/28 01:06:36;;;;;;;2.92;1.27;;;19.70;69.80;;;;;;5091800;28;20130;-61
2023/10/28 01:09:02;;;;;;;2.20;1.13;;;19.70;69.80;;;;;;5074541;28;20036;-61
2023/10/28 01:11:28;;;;;;;2.35;1.05;;;19.70;69.80;;;;;;5093037;28;20058;-61
2023/10/28 01:13:54;;;;;;;1.38;1.00;;;19.70;69.80;;;;;;5093061;28;20051;-62
2023/10/28 01:16:20;;;;;;;1.75;1.20;;;19.70;69.80;;;;;;5090385;28;20096;-61
2023/10/28 01:18:58;;;;;;;2.87;1.40;;;19.70;69.80;;;;;;5093235;28;20094;-61
2023/10/28 01:21:23;;;;;;;1.95;1.30;;;19.70;69.80;;;;;;5091439;28;20135;-61
2023/10/28 01:23:49;;;;;;;1.73;1.10;;;19.70;69.80;;;;;;5090822;28;20130;-61
2023/10/28 01:26:15;;;;;;;2.22;1.40;;;19.70;69.80;;;;;;5107834;28;20039;-61
2023/10/28 01:28:40;;;;;;;1.88;1.25;;;19.70;69.80;;;;;;5113223;28;20040;-61
2023/10/28 01:31:06;;;;;;;2.67;1.00;;;19.70;69.80;;;;;;5112384;28;20047;-61
2023/10/28 01:33:31;;;;;;;1.65;0.85;;;19.70;69.80;;;;;;5112765;28;20132;-61
2023/10/28 01:35:57;;;;;;;1.70;1.00;;;19.70;69.70;;;;;;5113232;28;20036;-61
2023/10/28 01:38:23;;;;;;;1.55;1.10;;;19.70;69.80;;;;;;5111774;28;20511;-61
2023/10/28 01:40:51;;;;;;;2.03;1.05;;;19.60;69.70;;;;;;5113410;28;20063;-61
2023/10/28 01:43:17;;;;;;;1.98;1.33;;;19.70;69.80;;;;;;5111988;28;20040;-62
2023/10/28 01:45:42;;;;;;;1.52;1.00;;;19.60;69.70;;;;;;5113052;28;20047;-62
2023/10/28 01:48:08;;;;;;;1.48;1.00;;;19.70;69.80;;;;;;5112927;28;20043;-61
2023/10/28 01:50:34;;;;;;;1.67;1.10;;;19.60;69.70;;;;;;5110891;28;20046;-61
2023/10/28 01:52:59;;;;;;;1.42;0.80;;;19.60;69.70;;;;;;5112879;28;20047;-61
2023/10/28 01:55:25;;;;;;;1.98;1.10;;;19.60;69.70;;;;;;5111426;28;20044;-61
2023/10/28 01:57:51;;;;;;;1.52;1.08;;;19.60;69.70;;;;;;5112499;28;20043;-61
2023/10/28 02:00:16;;;;;;;1.52;1.20;;;19.60;69.70;;;;;;5110896;28;20068;-61
2023/10/28 02:02:44;;;;;;;1.58;0.93;;;19.60;69.70;;;;;;5092364;28;20036;-61
2023/10/28 02:05:10;;;;;;;1.75;1.17;;;19.60;69.70;;;;;;5091204;28;20048;-61
2023/10/28 02:07:36;;;;;;;1.60;0.93;;;19.60;69.70;;;;;;5092428;28;20398;-61
2023/10/28 02:10:02;;;;;;;1.63;1.08;;;19.60;69.70;;;;;;5092312;28;20456;-61
2023/10/28 02:12:28;;;;;;;2.70;1.23;;;19.60;69.70;;;;;;5091697;28;20040;-61
2023/10/28 02:14:53;;;;;;;1.92;1.00;;;19.60;69.70;;;;;;5091621;28;20097;-61
2023/10/28 02:17:19;;;;;;;1.90;1.17;;;19.60;69.70;;;;;;5095528;28;20403;-61
2023/10/28 02:19:44;;;;;;;2.33;1.38;;;19.60;69.60;;;;;;5100195;28;20043;-61
2023/10/28 02:22:10;;;;;;;1.65;1.20;;;19.60;69.60;;;;;;5115850;28;20371;-61
2023/10/28 02:24:36;;;;;;;1.73;1.00;;;19.60;69.70;;;;;;5115440;28;20040;-61
2023/10/28 02:27:02;;;;;;;3.38;1.08;;;19.60;69.70;;;;;;5114922;28;20035;-61
2023/10/28 02:29:29;;;;;;;1.30;0.93;;;19.60;69.60;;;;;;5116485;28;20395;-62
2023/10/28 02:31:54;;;;;;;2.20;1.20;;;19.60;69.70;;;;;;5111534;28;20048;-61
2023/10/28 02:34:20;;;;;;;1.55;1.17;;;19.60;69.60;;;;;;5094699;28;20169;-62
2023/10/28 02:36:46;;;;;;;1.95;1.10;;;19.50;69.50;;;;;;5095469;28;20044;-61
2023/10/28 02:39:12;;;;;;;1.92;1.17;;;19.50;69.50;;;;;;5094559;28;20075;-61
2023/10/28 02:41:38;;;;;;;1.48;0.90;;;19.60;69.60;;;;;;5113979;28;20496;-61
2023/10/28 02:44:04;;;;;;;1.92;1.15;;;19.50;69.50;;;;;;5115187;28;20092;-61
2023/10/28 02:46:30;;;;;;;4.95;1.35;;;19.50;69.50;;;;;;5115075;27;20126;-61
2023/10/28 02:48:55;;;;;;;2.70;1.10;;;19.50;69.60;;;;;;5114581;28;20130;-61
2023/10/28 02:51:21;;;;;;;2.08;1.23;;;19.50;69.50;;;;;;5115677;28;20042;-61
2023/10/28 02:53:47;;;;;;;2.53;1.25;;;19.50;69.50;;;;;;5115224;28;20104;-62
2023/10/28 02:56:12;;;;;;;2.05;1.40;;;19.50;69.50;;;;;;5100035;28;20519;-61
2023/10/28 02:58:39;;;;;;;2.53;1.40;;;19.50;69.50;;;;;;5095588;28;20051;-62
2023/10/28 03:01:08;;;;;;;1.92;1.27;;;19.50;69.50;;;;;;5094682;28;20438;-61
2023/10/28 03:03:34;;;;;;;1.88;1.10;;;19.50;69.50;;;;;;5094874;28;20044;-61
2023/10/28 03:05:59;;;;;;;1.65;1.17;;;19.50;69.50;;;;;;5095354;28;20552;-61
2023/10/28 03:08:25;;;;;;;2.15;1.10;;;19.50;69.60;;;;;;5094266;28;20078;-61
2023/10/28 03:10:50;;;;;;;1.98;1.15;;;19.50;69.50;;;;;;5095353;28;20085;-61
2023/10/28 03:13:16;;;;;;;2.42;1.20;;;19.50;69.50;;;;;;5094029;28;20098;-62
2023/10/28 03:15:45;;;;;;;1.90;0.90;;;19.50;69.50;;;;;;5094244;28;20415;-61
2023/10/28 03:18:11;;;;;;;1.50;1.30;;;19.50;69.50;;;;;;5094704;28;20090;-62
2023/10/28 03:20:37;;;;;;;1.73;1.10;;;19.50;69.50;;;;;;5095206;28;20076;-62
2023/10/28 03:23:02;;;;;;;2.22;1.35;;;19.50;69.50;;;;;;5093393;28;20082;-62
2023/10/28 03:25:28;;;;;;;2.38;1.20;;;19.50;69.40;;;;;;5103821;28;20889;-61
2023/10/28 03:27:54;;;;;;;2.97;1.40;;;19.60;69.50;;;;;;5114944;28;20079;-62
2023/10/28 03:30:19;;;;;;;2.22;1.40;;;19.60;69.50;;;;;;5114436;28;20088;-62
2023/10/28 03:32:45;;;;;;;1.67;1.20;;;19.60;69.50;;;;;;5115045;28;20047;-62
2023/10/28 03:35:11;;;;;;;1.83;1.30;;;19.50;69.40;;;;;;5115036;28;20051;-61
2023/10/28 03:37:37;;;;;;;1.40;1.00;;;19.60;69.40;;;;;;5114640;28;20051;-62
2023/10/28 03:40:04;;;;;;;1.95;1.10;;;19.60;69.40;;;;;;5113967;28;20058;-61
2023/10/28 03:42:30;;;;;;;1.85;1.00;;;19.60;69.40;;;;;;5115120;28;20047;-62
2023/10/28 03:44:56;;;;;;;2.67;1.20;;;19.60;70.00;;;;;;5114182;28;20501;-61
2023/10/28 03:47:21;;;;;;;1.63;1.08;;;19.60;69.40;;;;;;5113348;28;20122;-62
2023/10/28 03:49:47;;;;;;;2.20;1.05;;;19.60;69.40;;;;;;5114204;28;20123;-62
2023/10/28 03:52:13;;;;;;;1.98;1.10;;;19.60;69.40;;;;;;5114691;28;20039;-61
2023/10/28 03:54:39;;;;;;;2.38;1.30;;;19.70;69.40;;;;;;5114780;28;20043;-61
2023/10/28 03:57:04;;;;;;;2.63;1.20;;;19.60;69.30;;;;;;5113986;28;20617;-62
2023/10/28 03:59:30;;;;;;;2.03;1.02;;;19.70;69.30;;;;;;5114576;28;20047;-62
2023/10/28 04:01:56;;;;;;;1.58;1.10;;;19.70;69.30;;;;;;5105424;28;20032;-61
2023/10/28 04:04:21;;;;;;;1.40;0.90;;;19.70;69.30;;;;;;5107417;28;20097;-62
2023/10/28 04:06:47;;;;;;;1.48;1.00;;;19.70;69.30;;;;;;5113897;28;20542;-61
2023/10/28 04:09:14;;;;;;;2.33;1.20;;;19.70;69.30;;;;;;5114153;28;20039;-61
2023/10/28 04:11:40;;;;;;;2.72;1.48;;;19.70;69.30;;;;;;5113775;28;20047;-63
2023/10/28 04:14:05;;;;;;;2.13;1.15;;;19.70;69.30;;;;;;5114502;28;20119;-62
2023/10/28 04:16:31;;;;;;;1.85;1.10;;;19.80;69.30;;;;;;5112742;28;20043;-61
2023/10/28 04:18:57;;;;;;;1.83;1.20;;;19.80;69.20;;;;;;5113597;27;20043;-62
2023/10/28 04:21:22;;;;;;;2.38;1.42;;;19.80;69.20;;;;;;5114280;28;20069;-62
2023/10/28 04:23:48;;;;;;;2.10;1.00;;;19.80;69.20;;;;;;5113020;28;20039;-62
2023/10/28 04:26:13;;;;;;;1.67;1.08;;;19.80;69.20;;;;;;5096266;28;20085;-61
2023/10/28 04:28:39;;;;;;;1.70;1.00;;;19.80;69.20;;;;;;5093909;28;20043;-61
2023/10/28 04:31:05;;;;;;;1.88;1.10;;;19.80;69.80;;;;;;5093573;28;20082;-61
2023/10/28 04:33:31;;;;;;;1.92;1.20;;;19.80;69.20;;;;;;5092574;28;20040;-62
2023/10/28 04:35:56;;;;;;;2.05;1.15;;;19.80;69.10;;;;;;5093627;28;20480;-62
2023/10/28 04:38:22;;;;;;;2.05;1.10;;;19.80;69.10;;;;;;5091214;28;20051;-62
2023/10/28 04:40:50;;;;;;;1.70;1.13;;;19.80;69.10;;;;;;5093018;28;20043;-62
2023/10/28 04:43:16;;;;;;;;;;;19.90;69.20;;;;;;5093735;28;20043;-61
2023/10/28 04:45:42;;;;;;;2.20;1.10;;;19.80;69.20;;;;;;5093560;28;19977;-61
2023/10/28 04:48:10;;;;;;;2.15;1.25;;;19.80;69.10;;;;;;5092830;28;20040;-61
2023/10/28 04:50:35;;;;;;;1.85;1.13;;;19.90;69.10;;;;;;5093032;28;20044;-61
2023/10/28 04:53:01;;;;;;;2.65;1.10;;;19.90;69.20;;;;;;5111683;28;20173;-62
2023/10/28 04:55:26;;;;;;;1.70;1.05;;;19.90;69.20;;;;;;5113310;28;20089;-61
2023/10/28 04:57:52;;;;;;;2.65;1.20;;;19.90;69.20;;;;;;5112379;28;20066;-61
2023/10/28 05:00:19;;;;;;;2.25;1.10;;;19.90;69.20;;;;;;5112458;28;20036;-62
2023/10/28 05:02:45;;;;;;;2.22;1.17;;;19.90;69.20;;;;;;5112204;28;20070;-62
2023/10/28 05:05:10;;;;;;;3.05;1.40;;;19.90;69.10;;;;;;5113078;28;20039;-61
2023/10/28 05:07:36;;;;;;;1.33;0.90;;;19.90;69.10;;;;;;5112765;28;20036;-61
2023/10/28 05:10:03;;;;;;;2.40;1.30;;;19.90;69.10;;;;;;5113376;28;20044;-61
2023/10/28 05:12:28;;;;;;;2.53;1.10;;;19.90;69.10;;;;;;5111936;28;20051;-61
2023/10/28 05:14:54;;;;;;;3.15;1.05;;;19.90;69.10;;;;;;5112788;28;20039;-62
2023/10/28 05:17:20;;;;;;;2.30;1.10;;;19.90;69.10;;;;;;5112866;28;20138;-61
2023/10/28 05:19:46;;;;;;;2.15;1.15;;;19.90;69.10;;;;;;5113155;28;20449;-62
2023/10/28 05:22:12;;;;;;;1.80;1.05;;;19.90;69.10;;;;;;5112011;28;20047;-62
2023/10/28 05:24:37;;;;;;;1.48;0.95;;;19.90;69.10;;;;;;5113110;28;20540;-62
2023/10/28 05:27:03;;;;;;;2.30;1.00;;;19.90;69.10;;;;;;5113312;27;20039;-61
2023/10/28 05:29:29;;;;;;;1.67;0.90;;;19.90;69.10;;;;;;5112408;28;20040;-62
2023/10/28 05:31:56;;;;;;;1.80;1.00;;;19.90;69.10;;;;;;5113337;28;20514;-62
2023/10/28 05:34:23;;;;;;;1.47;0.80;;;19.90;69.20;;;;;;5111821;28;20172;-62
2023/10/28 05:36:50;;;;;;;1.88;0.90;;;19.90;69.10;;;;;;5112444;28;20379;-61
2023/10/28 05:39:16;;;;;;;1.38;0.88;;;19.90;69.10;;;;;;5112686;28;20044;-61
2023/10/28 05:41:41;;;;;;;2.35;1.25;;;19.90;69.10;;;;;;5113345;28;20452;-61
2023/10/28 05:44:07;;;;;;;2.58;1.20;;;19.90;69.20;;;;;;5112174;28;20036;-61
2023/10/28 05:46:32;;;;;;;1.80;0.90;;;19.90;69.20;;;;;;5112772;28;20043;-61
2023/10/28 05:48:58;;;;;;;1.88;0.95;;;19.90;69.20;;;;;;5113207;28;20032;-61
2023/10/28 05:51:24;;;;;;;1.85;1.05;;;19.90;69.10;;;;;;5116530;28;20429;-61
2023/10/28 05:53:49;;;;;;;1.58;0.90;;;19.90;69.10;;;;;;5117548;28;20042;-61
2023/10/28 05:56:17;;;;;;;2.20;0.90;;;19.90;69.10;;;;;;5116415;28;20066;-61
2023/10/28 05:58:42;;;;;;;2.08;1.00;;;19.90;69.10;;;;;;5115372;28;20043;-61
2023/10/28 06:01:08;;;;;;;1.75;0.80;;;19.90;69.20;;;;;;5117283;28;20039;-61
2023/10/28 06:03:33;;;;;;;4.20;1.25;;;19.80;69.10;;;;;;5115726;28;20039;-60
2023/10/28 06:05:59;;;;;;;3.25;1.20;;;19.90;69.10;;;;;;5117145;28;20040;-60
2023/10/28 06:08:24;;;;;;;2.70;1.00;;;19.80;69.10;;;;;;5115303;28;20439;-60
2023/10/28 06:10:50;;;;;;;2.55;1.10;;;19.80;69.10;;;;;;5116270;28;20047;-60
2023/10/28 06:13:15;;;;;;;3.28;1.13;;;19.90;69.10;;;;;;5115311;28;20050;-60
2023/10/28 06:15:44;;;;;;;1.63;0.90;;;19.80;69.00;;;;;;5115605;28;20058;-60
2023/10/28 06:18:10;;;;;;;2.42;0.95;;;19.80;69.10;;;;;;5115585;28;20089;-60
2023/10/28 06:20:35;;;;;;;1.67;1.10;;;19.80;69.10;;;;;;5116919;28;20047;-60
2023/10/28 06:23:03;;;;;;;3.45;1.05;;;19.80;69.10;;;;;;5115168;28;20042;-60
2023/10/28 06:25:29;;;;;;;;;;;19.80;69.10;;;;;;5114525;28;20047;-61
2023/10/28 06:27:54;;;;;;;2.15;0.90;;;19.80;69.00;;;;;;5112031;28;19927;-61
2023/10/28 06:30:20;;;;;;;1.80;0.80;;;19.80;69.10;;;;;;5094324;28;20114;-60
2023/10/28 06:32:46;;;;;;;3.40;1.13;;;19.80;69.10;;;;;;5104155;28;20080;-60
2023/10/28 06:35:13;;;;;;;5.68;1.08;;;19.80;69.10;;;;;;5114813;28;20641;-60
2023/10/28 06:37:39;;;;;;;3.17;1.30;;;19.80;69.10;;;;;;5116350;28;20391;-60
2023/10/28 06:40:09;;;;;;;3.17;1.00;;;19.80;69.10;;;;;;5115546;28;20043;-60
2023/10/28 06:42:35;;;;;;;5.45;0.90;;;19.80;69.70;;;;;;5116406;28;20040;-62
2023/10/28 06:45:01;;;;;;;4.35;1.58;;;19.80;69.20;;;;;;5115031;28;20479;-61
2023/10/28 06:47:26;;;;;;;3.65;1.15;;;19.80;69.80;;;;;;5107012;28;20120;-60
2023/10/28 06:49:52;;;;;;;3.45;0.77;;;19.80;69.30;;;;;;5095597;28;20053;-62
2023/10/28 06:52:17;;;;;;;2.47;1.20;;;19.80;69.40;;;;;;5094384;28;20545;-61
2023/10/28 06:54:43;;;;;;;4.22;1.23;;;19.90;69.50;;;;;;5096111;28;20417;-65
2023/10/28 06:57:09;;;;;;;4.45;0.93;;;19.90;69.50;;;;;;5114316;28;20035;-60
2023/10/28 06:59:35;;;;;;;2.97;1.00;;;19.90;69.50;;;;;;5115755;28;20046;-60
2023/10/28 07:02:00;;;;;;;2.05;0.80;;;19.90;69.60;;;;;;5115058;28;20051;-60
2023/10/28 07:04:26;;;;;;;2.35;1.00;;;19.90;69.60;;;;;;5115381;28;20040;-60
2023/10/28 07:06:51;;;;;;;1.95;0.93;;;19.90;69.60;;;;;;5113850;28;20047;-60
2023/10/28 07:09:18;;;;;;;2.25;1.13;;;19.90;69.60;;;;;;5114240;28;20047;-60
2023/10/28 07:11:44;;;;;;;5.30;0.95;;;19.90;69.60;;;;;;5114192;28;20522;-60
2023/10/28 07:14:09;;;;;;;4.20;0.85;;;20.00;69.60;;;;;;5114425;28;20050;-59
2023/10/28 07:16:35;;;;;;;4.32;1.20;;;20.00;69.60;;;;;;5113506;28;20048;-60
2023/10/28 07:19:00;;;;;;;4.57;1.05;;;20.00;69.70;;;;;;5113310;28;20051;-61
2023/10/28 07:21:26;;;;;;;3.45;1.00;;;20.00;69.80;;;;;;5113683;28;20504;-61
2023/10/28 07:23:52;;;;;;;2.53;1.05;;;20.00;69.80;;;;;;5113902;28;20155;-60
2023/10/28 07:26:17;;;;;;;2.13;1.00;;;20.00;69.90;;;;;;5124723;27;20039;-59
2023/10/28 07:28:43;;;;;;;3.05;0.93;;;20.00;69.90;;;;;;5133856;27;20051;-61
2023/10/28 07:31:08;;;;;;;3.00;0.82;;;20.10;70.00;;;;;;5122600;27;20395;-59
2023/10/28 07:33:34;;;;;;;3.22;0.93;;;20.10;70.00;;;;;;5113717;28;20104;-60
2023/10/28 07:36:02;;;;;;;2.83;0.90;;;20.10;70.00;;;;;;5124661;27;20047;-60
2023/10/28 07:38:28;;;;;;;5.70;1.02;;;20.10;70.10;;;;;;5134181;27;20104;-60
2023/10/28 07:40:54;;;;;;;4.80;1.15;;;20.10;70.00;;;;;;5121321;27;20051;-60
2023/10/28 07:43:19;;;;;;;3.42;0.90;;;20.10;70.00;;;;;;5112540;28;20043;-59
2023/10/28 07:45:48;;;;;;;5.28;1.10;;;20.20;69.90;;;;;;5114990;27;20069;-60
2023/10/28 07:48:14;;;;;;;2.55;1.05;;;20.20;70.00;;;;;;5114578;28;20046;-60
2023/10/28 07:50:40;;;;;;;3.92;1.40;;;20.20;70.10;;;;;;5120417;27;20491;-60
2023/10/28 07:53:06;;;;;;;2.97;0.93;;;20.20;70.10;;;;;;5135027;27;20054;-60
2023/10/28 07:55:32;;;;;;;2.22;0.98;;;20.20;70.10;;;;;;5134513;27;20047;-60
2023/10/28 07:57:57;;;;;;;2.38;0.88;;;20.20;70.10;;;;;;5134463;27;20494;-60
2023/10/28 08:00:23;;;;;;;2.92;1.05;;;20.20;70.10;;;;;;5134568;27;20086;-60
2023/10/28 08:02:49;;;;;;;2.55;0.95;;;20.20;70.10;;;;;;5134990;27;20042;-60
2023/10/28 08:05:15;;;;;;;2.22;0.98;;;20.20;70.00;;;;;;5132416;27;20054;-60
2023/10/28 08:07:41;;;;;;;2.90;0.80;;;20.20;70.10;;;;;;5133551;27;20118;-60
2023/10/28 08:10:08;;;;;;;2.50;0.77;;;20.30;70.10;;;;;;5132578;27;20043;-60
2023/10/28 08:12:34;;;;;;;5.15;0.85;;;20.20;70.10;;;;;;5134843;27;20074;-60
2023/10/28 08:15:03;;;;;;;1.77;0.95;;;20.30;70.20;;;;;;5134329;27;20053;-60
2023/10/28 08:17:32;;;;;;;3.22;0.90;;;20.30;70.20;;;;;;5133699;27;20090;-60
2023/10/28 08:19:58;;;;;;;2.30;0.80;;;20.30;70.20;;;;;;5134587;27;20092;-60
2023/10/28 08:22:24;;;;;;;3.50;0.68;;;20.30;70.20;;;;;;5134143;27;20039;-60
2023/10/28 08:24:50;;;;;;;3.00;0.95;;;20.30;70.20;;;;;;5133883;27;20039;-60
2023/10/28 08:27:15;;;;;;;4.10;1.00;;;20.30;70.20;;;;;;5122781;27;20531;-60
2023/10/28 08:29:43;;;;;;;2.45;0.88;;;20.30;70.10;;;;;;5113485;28;20031;-60
2023/10/28 08:32:09;;;;;;;1.77;0.70;;;20.30;70.80;;;;;;5105690;28;20054;-60
2023/10/28 08:34:35;;;;;;;3.08;0.80;;;20.30;70.20;;;;;;5110697;28;20432;-60
2023/10/28 08:37:00;;;;;;;3.15;0.90;;;20.30;70.10;;;;;;5111897;27;20044;-60
2023/10/28 08:39:28;;;;;;;2.65;0.98;;;20.30;70.20;;;;;;5107623;28;20046;-61
2023/10/28 08:41:54;;;;;;;2.70;0.87;;;20.30;70.10;;;;;;5107983;28;20120;-60
2023/10/28 08:44:27;;;;;;;2.50;0.90;;;20.30;70.10;;;;;;5102916;28;20306;-60
2023/10/28 08:46:52;;;;;;;3.70;0.90;;;20.30;70.20;;;;;;5097418;28;20511;-60
2023/10/28 08:49:18;;;;;;;2.42;0.90;;;20.30;70.20;;;;;;5105983;28;20047;-60
2023/10/28 08:51:47;;;;;;;2.25;0.88;;;20.30;70.10;;;;;;5106846;28;20104;-60
2023/10/28 08:54:13;;;;;;;3.55;0.88;;;20.30;70.00;;;;;;5111303;28;20050;-60
2023/10/28 08:56:40;;;;;;;3.50;0.80;;;20.30;69.90;;;;;;5095079;28;20039;-61
2023/10/28 08:59:07;;;;;;;2.67;0.80;;;20.30;69.90;;;;;;5095602;28;20043;-61
2023/10/28 09:01:33;;;;;;;4.00;1.00;;;20.30;69.80;;;;;;5111615;28;20483;-61
2023/10/28 09:04:00;;;;;;;2.58;0.70;;;20.30;69.70;;;;;;5095467;28;20059;-60
2023/10/28 09:06:26;;;;;;;2.85;0.90;;;20.30;69.80;;;;;;5077492;28;20114;-61
2023/10/28 09:08:51;;;;;;;2.75;0.75;;;20.30;69.80;;;;;;5113688;28;20119;-61
2023/10/28 09:11:17;;;;;;;1.63;0.68;;;20.30;69.80;;;;;;5111953;28;20127;-61
2023/10/28 09:13:45;;;;;;;3.85;0.70;;;20.30;69.90;;;;;;5112340;28;20398;-61
2023/10/28 09:16:11;;;;;;;2.40;0.80;;;20.30;69.90;;;;;;5111579;28;20058;-62
2023/10/28 09:18:40;;;;;;;2.40;0.60;;;20.30;70.00;;;;;;5112944;28;20126;-61
2023/10/28 09:21:09;;;;;;;3.13;0.80;;;20.30;70.00;;;;;;5112428;28;20486;-61
2023/10/28 09:23:35;;;;;;;2.58;0.70;;;20.30;70.00;;;;;;5111964;28;20501;-61
2023/10/28 09:26:00;;;;;;;1.90;0.90;;;20.30;70.00;;;;;;5111544;28;20048;-61
2023/10/28 09:28:26;;;;;;;3.53;0.85;;;20.30;70.00;;;;;;5110632;28;20127;-61
2023/10/28 09:30:52;;;;;;;7.55;2.50;;;20.30;70.20;;;;;;5113397;28;20070;-62
2023/10/28 09:33:17;;;;;;;12.60;3.10;;;20.30;70.20;;;;;;5111393;28;20552;-62
2023/10/28 09:35:44;;;;;;;11.55;2.83;;;20.30;70.30;;;;;;5094124;28;20058;-62
2023/10/28 09:38:11;;;;;;;11.73;3.35;;;20.30;70.50;;;;;;5112970;28;20071;-61
2023/10/28 09:40:37;;;;;;;8.25;2.53;;;20.30;70.50;;;;;;5113325;28;20039;-61
2023/10/28 09:43:03;;;;;;;9.55;3.55;;;20.30;70.50;;;;;;5112290;28;20446;-62
2023/10/28 09:45:28;;;;;;;9.35;2.05;;;20.30;70.50;;;;;;5111369;28;20056;-61
2023/10/28 09:47:57;;;;;;;12.25;2.20;;;20.30;70.50;;;;;;5111854;28;20039;-61
2023/10/28 09:50:22;;;;;;;11.00;2.03;;;20.30;70.50;;;;;;5111913;28;20039;-75
2023/10/28 09:52:51;;;;;;;14.80;3.03;;;20.40;70.40;;;;;;5110597;28;20035;-62
2023/10/28 09:55:18;;;;;;;12.57;3.30;;;20.30;70.20;;;;;;5094817;28;20483;-63
2023/10/28 09:57:44;;;;;;;11.32;2.88;;;20.30;70.20;;;;;;5093918;28;20048;-63
2023/10/28 10:00:17;;;;;;;12.40;3.05;;;20.40;70.30;;;;;;5111498;28;20050;-60
2023/10/28 10:03:08;;;;;;;7.50;2.38;;;20.40;70.30;;;;;;5108716;28;20073;-60
2023/10/28 10:05:40;;;;;;;10.07;2.65;;;20.40;70.10;;;;;;5112282;28;20048;-60
2023/10/28 10:08:19;;;;;;;5.88;1.77;;;20.40;70.20;;;;;;5111419;28;20122;-61
2023/10/28 10:10:47;;;;;;;8.38;1.95;;;20.40;70.10;;;;;;5111926;28;20483;-61
2023/10/28 10:13:15;;;;;;;;;;;20.30;70.00;;;;;;5112733;28;20031;-62
2023/10/28 10:15:44;;;;;;;8.20;1.80;;;20.30;70.00;;;;;;5107385;28;19992;-62
2023/10/28 10:18:18;;;;;;;11.38;1.50;;;20.30;70.00;;;;;;5086471;28;20040;-61
2023/10/28 10:20:44;;;;;;;9.15;2.17;;;20.30;70.00;;;;;;5108083;28;20067;-61
2023/10/28 10:23:10;;;;;;;6.28;1.48;;;20.30;70.00;;;;;;5093730;28;20046;-61
2023/10/28 10:25:45;;;;;;;8.80;2.08;;;20.30;70.10;;;;;;5092862;28;20040;-61
2023/10/28 10:28:15;;;;;;;9.02;1.48;;;20.30;70.10;;;;;;5108499;28;20402;-61
2023/10/28 10:30:41;;;;;;;8.63;1.85;;;20.30;70.20;;;;;;5109478;28;20040;-62
2023/10/28 10:33:07;;;;;;;4.72;1.80;;;20.30;70.20;;;;;;5110830;28;20040;-61
2023/10/28 10:35:33;;;;;;;5.00;1.50;;;20.30;70.10;;;;;;5112504;28;20047;-61
2023/10/28 10:38:14;;;;;;;4.43;1.63;;;20.30;70.00;;;;;;5113456;28;20051;-61
2023/10/28 10:40:46;;;;;;;9.40;1.73;;;20.30;70.10;;;;;;5116045;27;20051;-61
2023/10/28 10:43:11;;;;;;;3.55;1.30;;;20.30;70.00;;;;;;5115874;28;20035;-61
2023/10/28 10:45:37;;;;;;;5.88;1.60;;;20.30;70.00;;;;;;5097510;28;20063;-61
2023/10/28 10:48:04;;;;;;;4.57;1.70;;;20.30;70.00;;;;;;5114496;28;20047;-61
2023/10/28 10:50:31;;;;;;;4.68;1.38;;;20.30;70.00;;;;;;5097803;28;20415;-60
2023/10/28 10:52:57;;;;;;;3.30;1.25;;;20.30;70.00;;;;;;5114114;28;20578;-61
2023/10/28 10:55:23;;;;;;;3.58;0.98;;;20.20;70.00;;;;;;5114501;28;20131;-62
2023/10/28 10:57:50;;;;;;;4.30;1.20;;;20.20;70.00;;;;;;5114830;28;20150;-61
2023/10/28 11:00:16;;;;;;;3.67;1.00;;;20.20;69.90;;;;;;5114229;28;20126;-61
2023/10/28 11:02:42;;;;;;;3.80;1.17;;;20.20;69.90;;;;;;5115506;28;20486;-58
2023/10/28 11:05:08;;;;;;;3.70;1.20;;;20.20;69.90;;;;;;5115497;28;20036;-61
2023/10/28 11:07:34;;;;;;;5.40;1.13;;;20.20;69.90;;;;;;5112719;28;20446;-61
2023/10/28 11:10:01;;;;;;;2.78;1.00;;;20.20;69.90;;;;;;5115430;28;20040;-61
2023/10/28 11:12:26;;;;;;;6.35;1.40;;;20.20;69.80;;;;;;5113983;28;20098;-61
2023/10/28 11:14:54;;;;;;;6.25;1.30;;;20.20;69.80;;;;;;5114463;28;20448;-61
2023/10/28 11:17:19;;;;;;;6.90;1.40;;;20.20;69.80;;;;;;5114559;28;20059;-61
2023/10/28 11:19:51;;;;;;;7.65;1.70;;;20.10;69.80;;;;;;5114310;28;20070;-61
2023/10/28 11:22:17;;;;;;;4.70;1.20;;;20.10;69.80;;;;;;5114143;28;20032;-61
2023/10/28 11:24:43;;;;;;;4.22;1.30;;;20.10;69.80;;;;;;5114528;28;20591;-61
2023/10/28 11:27:08;;;;;;;4.03;1.23;;;20.10;69.80;;;;;;5113332;28;20072;-61
2023/10/28 11:29:38;;;;;;;4.53;1.10;;;20.10;69.90;;;;;;5114076;28;20047;-61
2023/10/28 11:32:07;;;;;;;3.47;0.90;;;20.10;69.90;;;;;;5114230;28;20495;-61
2023/10/28 11:34:43;;;;;;;3.50;1.10;;;20.10;69.90;;;;;;5114931;28;20047;-61
2023/10/28 11:37:12;;;;;;;5.70;1.35;;;20.10;69.90;;;;;;5113687;28;20039;-61
2023/10/28 11:39:44;;;;;;;3.53;1.10;;;20.10;69.90;;;;;;5115101;28;20139;-61
2023/10/28 11:42:13;;;;;;;3.97;0.93;;;20.10;69.90;;;;;;5114444;28;20127;-61
2023/10/28 11:44:40;;;;;;;3.47;1.00;;;20.10;69.90;;;;;;5113963;28;20068;-60
2023/10/28 11:47:06;;;;;;;3.42;0.98;;;20.10;69.90;;;;;;5113749;28;20051;-61
2023/10/28 11:49:35;;;;;;;2.70;0.90;;;20.10;69.90;;;;;;5112744;28;20055;-61
2023/10/28 11:52:01;;;;;;;3.75;1.10;;;20.10;69.90;;;;;;5114774;28;20403;-61
2023/10/28 11:54:27;;;;;;;4.80;1.13;;;20.10;69.90;;;;;;5096223;28;20123;-61
2023/10/28 11:56:52;;;;;;;2.92;0.93;;;20.10;69.90;;;;;;5112975;28;20043;-61
2023/10/28 11:59:18;;;;;;;6.90;1.00;;;20.10;69.80;;;;;;5113806;28;20131;-61
2023/10/28 12:01:43;;;;;;;4.18;1.23;;;20.10;69.80;;;;;;5107761;28;20043;-61
2023/10/28 12:04:09;;;;;;;2.65;0.80;;;20.10;69.80;;;;;;5096524;28;20518;-61
2023/10/28 12:06:35;;;;;;;3.53;1.00;;;20.10;69.80;;;;;;5093023;28;20407;-61
2023/10/28 12:09:01;;;;;;;3.17;1.13;;;20.10;69.80;;;;;;5109821;28;20139;-61
2023/10/28 12:11:27;;;;;;;3.90;1.35;;;20.20;69.80;;;;;;5093405;28;20040;-60
2023/10/28 12:13:54;;;;;;;2.00;1.00;;;20.20;69.80;;;;;;5094051;28;20047;-61
2023/10/28 12:16:20;;;;;;;2.47;0.80;;;20.20;69.70;;;;;;5091636;28;20073;-62
2023/10/28 12:18:45;;;;;;;2.05;0.80;;;20.20;69.70;;;;;;5109572;28;20044;-61
2023/10/28 12:21:12;;;;;;;4.57;1.00;;;20.20;69.70;;;;;;5093664;28;20074;-61
2023/10/28 12:23:38;;;;;;;2.22;0.73;;;20.20;69.60;;;;;;5092292;28;20041;-61
2023/10/28 12:26:04;;;;;;;3.00;1.42;;;20.20;69.90;;;;;;5094102;28;20127;-61
2023/10/28 12:28:29;;;;;;;3.60;0.93;;;20.30;69.70;;;;;;5093824;28;20489;-61
2023/10/28 12:30:55;;;;;;;3.28;0.80;;;20.30;69.60;;;;;;5093112;28;20050;-61
2023/10/28 12:33:24;;;;;;;1.83;0.80;;;20.30;69.60;;;;;;5093188;28;20044;-61
2023/10/28 12:35:50;;;;;;;2.55;1.00;;;20.30;69.60;;;;;;5109685;28;20070;-61
2023/10/28 12:38:15;;;;;;;4.30;1.10;;;20.30;69.60;;;;;;5092806;28;20472;-61
2023/10/28 12:40:41;;;;;;;2.75;0.90;;;20.30;69.60;;;;;;5109643;28;20043;-61
2023/10/28 12:43:06;;;;;;;4.22;0.80;;;20.30;69.60;;;;;;5092557;28;20138;-61